sensor_id;sensor_type;location;lat;lon;timestamp;temperature;humidity
26541;DHT22;14206;50.202;10.948;2023-05-02T00:01:42;8.10;96.60
26541;DHT22;14206;50.202;10.948;2023-05-02T00:04:10;8.10;96.60
26541;DHT22;14206;50.202;10.948;2023-05-02T00:06:38;8.10;96.60
26541;DHT22;14206;50.202;10.948;2023-05-02T00:09:05;8.10;96.60
26541;DHT22;14206;50.202;10.948;2023-05-02T00:11:32;8.20;96.60
26541;DHT22;14206;50.202;10.948;2023-05-02T00:13:58;8.20;96.60
26541;DHT22;14206;50.202;10.948;2023-05-02T00:16:25;8.20;96.60
26541;DHT22;14206;50.202;10.948;2023-05-02T00:18:52;8.30;96.60
26541;DHT22;14206;50.202;10.948;2023-05-02T00:21:19;8.30;96.60
26541;DHT22;14206;50.202;10.948;2023-05-02T00:23:46;8.30;96.60
26541;DHT22;14206;50.202;10.948;2023-05-02T00:26:12;8.30;96.60
26541;DHT22;14206;50.202;10.948;2023-05-02T00:28:41;8.30;96.60
26541;DHT22;14206;50.202;10.948;2023-05-02T00:31:08;8.20;96.60
26541;DHT22;14206;50.202;10.948;2023-05-02T00:33:36;8.10;96.60
26541;DHT22;14206;50.202;10.948;2023-05-02T00:36:02;8.00;96.60
26541;DHT22;14206;50.202;10.948;2023-05-02T00:38:29;7.90;96.60
26541;DHT22;14206;50.202;10.948;2023-05-02T00:40:56;7.90;96.60
26541;DHT22;14206;50.202;10.948;2023-05-02T00:43:23;7.80;96.60
26541;DHT22;14206;50.202;10.948;2023-05-02T00:45:51;7.70;96.60
26541;DHT22;14206;50.202;10.948;2023-05-02T00:48:18;7.70;96.60
26541;DHT22;14206;50.202;10.948;2023-05-02T00:50:47;7.70;96.60
26541;DHT22;14206;50.202;10.948;2023-05-02T00:53:14;7.80;96.60
26541;DHT22;14206;50.202;10.948;2023-05-02T00:55:41;7.80;96.60
26541;DHT22;14206;50.202;10.948;2023-05-02T00:58:11;7.80;96.60
26541;DHT22;14206;50.202;10.948;2023-05-02T01:00:54;7.80;96.60
26541;DHT22;14206;50.202;10.948;2023-05-02T01:06:23;7.80;96.60
26541;DHT22;14206;50.202;10.948;2023-05-02T01:12:27;7.70;96.60
26541;DHT22;14206;50.202;10.948;2023-05-02T01:14:57;7.70;96.60
26541;DHT22;14206;50.202;10.948;2023-05-02T01:17:29;7.80;96.60
26541;DHT22;14206;50.202;10.948;2023-05-02T01:20:04;7.80;96.60
26541;DHT22;14206;50.202;10.948;2023-05-02T01:22:32;7.90;96.60
26541;DHT22;14206;50.202;10.948;2023-05-02T01:30:21;8.00;96.60
26541;DHT22;14206;50.202;10.948;2023-05-02T01:32:51;8.00;96.60
26541;DHT22;14206;50.202;10.948;2023-05-02T01:35:19;8.00;96.60
26541;DHT22;14206;50.202;10.948;2023-05-02T01:37:47;8.00;96.60
26541;DHT22;14206;50.202;10.948;2023-05-02T01:40:19;7.90;96.60
26541;DHT22;14206;50.202;10.948;2023-05-02T01:42:48;7.90;96.60
26541;DHT22;14206;50.202;10.948;2023-05-02T01:45:16;7.90;96.60
26541;DHT22;14206;50.202;10.948;2023-05-02T01:47:44;8.00;96.60
26541;DHT22;14206;50.202;10.948;2023-05-02T01:50:15;8.00;96.60
26541;DHT22;14206;50.202;10.948;2023-05-02T01:52:44;8.00;96.60
26541;DHT22;14206;50.202;10.948;2023-05-02T01:55:14;8.00;96.60
26541;DHT22;14206;50.202;10.948;2023-05-02T01:57:43;8.00;96.60
26541;DHT22;14206;50.202;10.948;2023-05-02T02:00:13;8.00;96.60
26541;DHT22;14206;50.202;10.948;2023-05-02T02:02:44;8.00;96.60
26541;DHT22;14206;50.202;10.948;2023-05-02T02:05:13;8.00;96.60
26541;DHT22;14206;50.202;10.948;2023-05-02T02:07:42;7.90;96.60
26541;DHT22;14206;50.202;10.948;2023-05-02T02:10:09;7.90;96.60
26541;DHT22;14206;50.202;10.948;2023-05-02T02:12:50;7.90;96.60
26541;DHT22;14206;50.202;10.948;2023-05-02T02:15:23;8.00;96.60
26541;DHT22;14206;50.202;10.948;2023-05-02T02:17:59;8.00;96.60
26541;DHT22;14206;50.202;10.948;2023-05-02T02:20:29;8.00;96.60
26541;DHT22;14206;50.202;10.948;2023-05-02T02:22:59;8.00;96.60
26541;DHT22;14206;50.202;10.948;2023-05-02T02:25:27;8.00;96.60
26541;DHT22;14206;50.202;10.948;2023-05-02T02:27:55;8.00;96.60
26541;DHT22;14206;50.202;10.948;2023-05-02T02:30:22;8.10;96.60
26541;DHT22;14206;50.202;10.948;2023-05-02T02:32:49;8.10;96.60
26541;DHT22;14206;50.202;10.948;2023-05-02T02:35:16;8.20;96.60
26541;DHT22;14206;50.202;10.948;2023-05-02T02:40:30;8.20;96.60
26541;DHT22;14206;50.202;10.948;2023-05-02T02:43:08;8.20;96.60
26541;DHT22;14206;50.202;10.948;2023-05-02T02:45:50;8.20;96.60
26541;DHT22;14206;50.202;10.948;2023-05-02T02:50:53;8.30;96.60
26541;DHT22;14206;50.202;10.948;2023-05-02T02:53:32;8.30;96.60
26541;DHT22;14206;50.202;10.948;2023-05-02T02:56:04;8.30;96.60
26541;DHT22;14206;50.202;10.948;2023-05-02T03:01:18;8.40;96.60
26541;DHT22;14206;50.202;10.948;2023-05-02T03:03:47;8.40;96.60
26541;DHT22;14206;50.202;10.948;2023-05-02T03:06:18;8.30;96.60
26541;DHT22;14206;50.202;10.948;2023-05-02T03:08:46;8.30;96.60
26541;DHT22;14206;50.202;10.948;2023-05-02T03:11:17;8.20;96.60
26541;DHT22;14206;50.202;10.948;2023-05-02T03:13:45;8.20;96.60
26541;DHT22;14206;50.202;10.948;2023-05-02T03:16:37;8.10;96.60
26541;DHT22;14206;50.202;10.948;2023-05-02T03:19:08;8.10;96.60
26541;DHT22;14206;50.202;10.948;2023-05-02T03:21:36;8.00;96.60
26541;DHT22;14206;50.202;10.948;2023-05-02T03:24:10;7.90;96.60
26541;DHT22;14206;50.202;10.948;2023-05-02T03:26:37;7.90;96.60
26541;DHT22;14206;50.202;10.948;2023-05-02T03:29:07;8.00;96.60
26541;DHT22;14206;50.202;10.948;2023-05-02T03:31:38;8.00;96.60
26541;DHT22;14206;50.202;10.948;2023-05-02T03:34:05;8.00;96.60
26541;DHT22;14206;50.202;10.948;2023-05-02T03:36:34;7.90;96.60
26541;DHT22;14206;50.202;10.948;2023-05-02T03:39:01;7.90;96.60
26541;DHT22;14206;50.202;10.948;2023-05-02T03:41:29;7.90;96.60
26541;DHT22;14206;50.202;10.948;2023-05-02T03:44:01;7.90;96.60
26541;DHT22;14206;50.202;10.948;2023-05-02T03:46:29;7.90;96.60
26541;DHT22;14206;50.202;10.948;2023-05-02T03:48:59;7.90;96.60
26541;DHT22;14206;50.202;10.948;2023-05-02T03:51:26;7.90;96.60
26541;DHT22;14206;50.202;10.948;2023-05-02T03:53:55;8.00;96.60
26541;DHT22;14206;50.202;10.948;2023-05-02T03:56:22;8.00;96.60
26541;DHT22;14206;50.202;10.948;2023-05-02T03:59:00;8.00;96.60
26541;DHT22;14206;50.202;10.948;2023-05-02T04:01:27;8.00;96.60
26541;DHT22;14206;50.202;10.948;2023-05-02T04:03:55;8.00;96.60
26541;DHT22;14206;50.202;10.948;2023-05-02T04:06:24;8.00;96.60
26541;DHT22;14206;50.202;10.948;2023-05-02T04:09:01;8.00;96.60
26541;DHT22;14206;50.202;10.948;2023-05-02T04:11:35;8.10;96.60
26541;DHT22;14206;50.202;10.948;2023-05-02T04:14:03;8.10;96.60
26541;DHT22;14206;50.202;10.948;2023-05-02T04:16:31;8.20;96.60
26541;DHT22;14206;50.202;10.948;2023-05-02T04:18:58;8.30;96.60
26541;DHT22;14206;50.202;10.948;2023-05-02T04:21:25;8.40;96.60
26541;DHT22;14206;50.202;10.948;2023-05-02T04:23:52;8.40;96.60
26541;DHT22;14206;50.202;10.948;2023-05-02T04:26:19;8.50;96.60
26541;DHT22;14206;50.202;10.948;2023-05-02T04:28:53;8.50;96.60
26541;DHT22;14206;50.202;10.948;2023-05-02T04:31:20;8.60;96.60
26541;DHT22;14206;50.202;10.948;2023-05-02T04:33:47;8.60;96.60
26541;DHT22;14206;50.202;10.948;2023-05-02T04:36:20;8.60;96.60
26541;DHT22;14206;50.202;10.948;2023-05-02T04:38:48;8.70;96.60
26541;DHT22;14206;50.202;10.948;2023-05-02T04:41:16;8.70;96.60
26541;DHT22;14206;50.202;10.948;2023-05-02T04:43:50;8.70;96.60
26541;DHT22;14206;50.202;10.948;2023-05-02T04:46:17;8.70;96.60
26541;DHT22;14206;50.202;10.948;2023-05-02T04:48:45;8.80;96.60
26541;DHT22;14206;50.202;10.948;2023-05-02T04:51:11;8.80;96.60
26541;DHT22;14206;50.202;10.948;2023-05-02T04:53:42;8.80;96.60
26541;DHT22;14206;50.202;10.948;2023-05-02T04:56:09;8.80;96.60
26541;DHT22;14206;50.202;10.948;2023-05-02T04:58:37;8.80;96.60
26541;DHT22;14206;50.202;10.948;2023-05-02T05:01:07;8.80;96.60
26541;DHT22;14206;50.202;10.948;2023-05-02T05:03:34;8.80;96.60
26541;DHT22;14206;50.202;10.948;2023-05-02T05:06:02;8.90;96.60
26541;DHT22;14206;50.202;10.948;2023-05-02T05:08:29;8.90;96.60
26541;DHT22;14206;50.202;10.948;2023-05-02T05:10:56;9.00;96.60
26541;DHT22;14206;50.202;10.948;2023-05-02T05:13:24;9.00;96.60
26541;DHT22;14206;50.202;10.948;2023-05-02T05:15:51;9.00;96.60
26541;DHT22;14206;50.202;10.948;2023-05-02T05:18:22;9.00;96.60
26541;DHT22;14206;50.202;10.948;2023-05-02T05:20:49;8.90;96.60
26541;DHT22;14206;50.202;10.948;2023-05-02T05:23:16;8.80;96.60
26541;DHT22;14206;50.202;10.948;2023-05-02T05:25:43;8.70;96.60
26541;DHT22;14206;50.202;10.948;2023-05-02T05:28:14;8.70;96.60
26541;DHT22;14206;50.202;10.948;2023-05-02T05:30:41;8.70;96.60
26541;DHT22;14206;50.202;10.948;2023-05-02T05:33:10;8.70;96.60
26541;DHT22;14206;50.202;10.948;2023-05-02T05:35:38;8.70;96.60
26541;DHT22;14206;50.202;10.948;2023-05-02T05:38:04;8.80;96.60
26541;DHT22;14206;50.202;10.948;2023-05-02T05:40:35;8.80;96.60
26541;DHT22;14206;50.202;10.948;2023-05-02T05:43:03;8.80;96.60
26541;DHT22;14206;50.202;10.948;2023-05-02T05:45:34;8.90;96.60
26541;DHT22;14206;50.202;10.948;2023-05-02T05:48:02;9.00;96.60
26541;DHT22;14206;50.202;10.948;2023-05-02T05:50:33;9.10;96.60
26541;DHT22;14206;50.202;10.948;2023-05-02T05:53:00;9.10;96.60
26541;DHT22;14206;50.202;10.948;2023-05-02T05:55:27;9.20;96.60
26541;DHT22;14206;50.202;10.948;2023-05-02T05:57:54;9.20;96.60
26541;DHT22;14206;50.202;10.948;2023-05-02T06:00:21;9.30;96.60
26541;DHT22;14206;50.202;10.948;2023-05-02T06:02:50;9.40;96.60
26541;DHT22;14206;50.202;10.948;2023-05-02T06:05:31;9.50;96.60
26541;DHT22;14206;50.202;10.948;2023-05-02T06:07:58;9.60;96.60
26541;DHT22;14206;50.202;10.948;2023-05-02T06:10:25;9.60;96.60
26541;DHT22;14206;50.202;10.948;2023-05-02T06:12:53;9.70;96.60
26541;DHT22;14206;50.202;10.948;2023-05-02T06:15:24;9.70;96.60
26541;DHT22;14206;50.202;10.948;2023-05-02T06:17:51;9.70;96.60
26541;DHT22;14206;50.202;10.948;2023-05-02T06:20:18;9.80;96.60
26541;DHT22;14206;50.202;10.948;2023-05-02T06:22:45;9.80;96.60
26541;DHT22;14206;50.202;10.948;2023-05-02T06:25:12;9.80;96.60
26541;DHT22;14206;50.202;10.948;2023-05-02T06:27:38;9.90;96.60
26541;DHT22;14206;50.202;10.948;2023-05-02T06:30:06;10.00;96.60
26541;DHT22;14206;50.202;10.948;2023-05-02T06:32:33;10.00;96.60
26541;DHT22;14206;50.202;10.948;2023-05-02T06:34:59;10.10;96.60
26541;DHT22;14206;50.202;10.948;2023-05-02T06:37:26;10.10;96.60
26541;DHT22;14206;50.202;10.948;2023-05-02T06:39:53;10.10;96.60
26541;DHT22;14206;50.202;10.948;2023-05-02T06:42:20;10.20;96.60
26541;DHT22;14206;50.202;10.948;2023-05-02T06:44:47;10.20;96.60
26541;DHT22;14206;50.202;10.948;2023-05-02T06:47:14;10.30;96.60
26541;DHT22;14206;50.202;10.948;2023-05-02T06:49:41;10.30;96.60
26541;DHT22;14206;50.202;10.948;2023-05-02T06:52:08;10.30;96.60
26541;DHT22;14206;50.202;10.948;2023-05-02T06:54:34;10.30;96.60
26541;DHT22;14206;50.202;10.948;2023-05-02T06:57:01;10.30;96.60
26541;DHT22;14206;50.202;10.948;2023-05-02T06:59:28;10.30;96.60
26541;DHT22;14206;50.202;10.948;2023-05-02T07:01:55;10.30;96.60
26541;DHT22;14206;50.202;10.948;2023-05-02T07:04:22;10.40;96.60
26541;DHT22;14206;50.202;10.948;2023-05-02T07:06:48;10.70;96.60
26541;DHT22;14206;50.202;10.948;2023-05-02T07:09:16;10.90;96.60
26541;DHT22;14206;50.202;10.948;2023-05-02T07:11:43;11.20;96.60
26541;DHT22;14206;50.202;10.948;2023-05-02T07:14:10;11.50;96.60
26541;DHT22;14206;50.202;10.948;2023-05-02T07:16:36;11.70;96.60
26541;DHT22;14206;50.202;10.948;2023-05-02T07:19:03;11.80;95.40
26541;DHT22;14206;50.202;10.948;2023-05-02T07:21:32;12.00;95.10
26541;DHT22;14206;50.202;10.948;2023-05-02T07:23:59;12.10;95.10
26541;DHT22;14206;50.202;10.948;2023-05-02T07:26:27;12.30;94.60
26541;DHT22;14206;50.202;10.948;2023-05-02T07:28:53;12.60;93.90
26541;DHT22;14206;50.202;10.948;2023-05-02T07:31:20;12.90;93.70
26541;DHT22;14206;50.202;10.948;2023-05-02T07:33:47;13.20;92.70
26541;DHT22;14206;50.202;10.948;2023-05-02T07:36:14;13.40;92.70
26541;DHT22;14206;50.202;10.948;2023-05-02T07:38:40;13.70;92.20
26541;DHT22;14206;50.202;10.948;2023-05-02T07:41:07;13.90;91.20
26541;DHT22;14206;50.202;10.948;2023-05-02T07:43:34;14.20;89.90
26541;DHT22;14206;50.202;10.948;2023-05-02T07:46:04;14.50;89.50
26541;DHT22;14206;50.202;10.948;2023-05-02T07:48:32;14.70;88.30
26541;DHT22;14206;50.202;10.948;2023-05-02T07:51:07;14.90;87.70
26541;DHT22;14206;50.202;10.948;2023-05-02T07:53:34;15.60;87.00
26541;DHT22;14206;50.202;10.948;2023-05-02T07:56:03;16.40;83.70
26541;DHT22;14206;50.202;10.948;2023-05-02T07:58:31;16.90;81.80
26541;DHT22;14206;50.202;10.948;2023-05-02T08:00:58;17.00;82.50
26541;DHT22;14206;50.202;10.948;2023-05-02T08:03:25;17.80;80.70
26541;DHT22;14206;50.202;10.948;2023-05-02T08:05:53;18.90;78.70
26541;DHT22;14206;50.202;10.948;2023-05-02T08:08:20;20.00;76.40
26541;DHT22;14206;50.202;10.948;2023-05-02T08:10:47;21.10;74.10
26541;DHT22;14206;50.202;10.948;2023-05-02T08:13:13;22.20;72.20
26541;DHT22;14206;50.202;10.948;2023-05-02T08:15:40;23.30;69.70
26541;DHT22;14206;50.202;10.948;2023-05-02T08:18:07;24.40;68.10
26541;DHT22;14206;50.202;10.948;2023-05-02T08:20:34;25.30;66.20
26541;DHT22;14206;50.202;10.948;2023-05-02T08:23:01;26.10;63.20
26541;DHT22;14206;50.202;10.948;2023-05-02T08:25:28;26.80;61.00
26541;DHT22;14206;50.202;10.948;2023-05-02T08:27:56;27.30;60.30
26541;DHT22;14206;50.202;10.948;2023-05-02T08:30:22;27.90;56.70
26541;DHT22;14206;50.202;10.948;2023-05-02T08:32:50;28.40;57.10
26541;DHT22;14206;50.202;10.948;2023-05-02T08:35:16;28.60;55.30
26541;DHT22;14206;50.202;10.948;2023-05-02T08:37:43;28.70;55.80
26541;DHT22;14206;50.202;10.948;2023-05-02T08:40:11;29.00;54.70
26541;DHT22;14206;50.202;10.948;2023-05-02T08:42:41;29.10;54.60
26541;DHT22;14206;50.202;10.948;2023-05-02T08:45:11;29.60;54.00
26541;DHT22;14206;50.202;10.948;2023-05-02T08:47:41;30.10;51.90
26541;DHT22;14206;50.202;10.948;2023-05-02T08:50:09;30.30;52.60
26541;DHT22;14206;50.202;10.948;2023-05-02T08:52:37;30.50;52.00
26541;DHT22;14206;50.202;10.948;2023-05-02T08:55:06;30.30;51.20
26541;DHT22;14206;50.202;10.948;2023-05-02T08:57:33;30.50;51.70
26541;DHT22;14206;50.202;10.948;2023-05-02T09:00:00;31.10;51.10
26541;DHT22;14206;50.202;10.948;2023-05-02T09:05:08;31.70;50.30
26541;DHT22;14206;50.202;10.948;2023-05-02T09:07:47;31.60;49.00
26541;DHT22;14206;50.202;10.948;2023-05-02T09:10:14;31.20;48.10
26541;DHT22;14206;50.202;10.948;2023-05-02T09:12:41;31.10;49.00
26541;DHT22;14206;50.202;10.948;2023-05-02T09:15:16;31.10;49.10
26541;DHT22;14206;50.202;10.948;2023-05-02T09:17:47;30.60;47.80
26541;DHT22;14206;50.202;10.948;2023-05-02T09:20:15;29.90;48.90
26541;DHT22;14206;50.202;10.948;2023-05-02T09:22:50;30.00;48.40
26541;DHT22;14206;50.202;10.948;2023-05-02T09:25:19;29.90;48.40
26541;DHT22;14206;50.202;10.948;2023-05-02T09:30:19;29.20;49.30
26541;DHT22;14206;50.202;10.948;2023-05-02T09:32:48;28.50;50.20
26541;DHT22;14206;50.202;10.948;2023-05-02T09:35:17;27.80;50.90
26541;DHT22;14206;50.202;10.948;2023-05-02T09:37:54;26.60;51.40
26541;DHT22;14206;50.202;10.948;2023-05-02T09:40:21;25.50;52.90
26541;DHT22;14206;50.202;10.948;2023-05-02T09:42:49;24.60;54.40
26541;DHT22;14206;50.202;10.948;2023-05-02T09:45:24;24.10;55.80
26541;DHT22;14206;50.202;10.948;2023-05-02T09:47:52;23.60;56.30
26541;DHT22;14206;50.202;10.948;2023-05-02T09:50:51;23.40;57.20
26541;DHT22;14206;50.202;10.948;2023-05-02T09:53:18;22.80;58.30
26541;DHT22;14206;50.202;10.948;2023-05-02T09:55:45;22.30;59.00
26541;DHT22;14206;50.202;10.948;2023-05-02T09:58:22;21.70;58.70
26541;DHT22;14206;50.202;10.948;2023-05-02T10:00:50;21.10;60.00
26541;DHT22;14206;50.202;10.948;2023-05-02T10:03:18;20.60;61.90
26541;DHT22;14206;50.202;10.948;2023-05-02T10:05:46;20.30;62.80
26541;DHT22;14206;50.202;10.948;2023-05-02T10:08:15;20.00;63.00
26541;DHT22;14206;50.202;10.948;2023-05-02T10:10:53;19.80;64.20
26541;DHT22;14206;50.202;10.948;2023-05-02T10:13:22;19.50;67.00
26541;DHT22;14206;50.202;10.948;2023-05-02T10:15:58;19.30;65.90
26541;DHT22;14206;50.202;10.948;2023-05-02T10:21:15;19.10;65.80
26541;DHT22;14206;50.202;10.948;2023-05-02T10:23:44;18.90;66.30
26541;DHT22;14206;50.202;10.948;2023-05-02T10:26:15;18.80;67.40
26541;DHT22;14206;50.202;10.948;2023-05-02T10:28:42;18.70;67.10
26541;DHT22;14206;50.202;10.948;2023-05-02T10:31:09;18.70;66.80
26541;DHT22;14206;50.202;10.948;2023-05-02T10:33:38;18.70;66.70
26541;DHT22;14206;50.202;10.948;2023-05-02T10:36:07;18.70;68.20
26541;DHT22;14206;50.202;10.948;2023-05-02T10:38:36;18.70;68.50
26541;DHT22;14206;50.202;10.948;2023-05-02T10:41:40;18.70;67.30
26541;DHT22;14206;50.202;10.948;2023-05-02T10:44:00;18.70;68.30
26541;DHT22;14206;50.202;10.948;2023-05-02T10:51:29;18.70;69.60
26541;DHT22;14206;50.202;10.948;2023-05-02T10:59:32;19.10;69.00
26541;DHT22;14206;50.202;10.948;2023-05-02T11:01:59;19.20;69.40
26541;DHT22;14206;50.202;10.948;2023-05-02T11:05:04;20.00;68.50
26541;DHT22;14206;50.202;10.948;2023-05-02T11:07:36;21.20;65.30
26541;DHT22;14206;50.202;10.948;2023-05-02T11:10:23;22.90;62.50
26541;DHT22;14206;50.202;10.948;2023-05-02T11:12:51;24.40;60.00
26541;DHT22;14206;50.202;10.948;2023-05-02T11:20:40;24.70;55.80
26541;DHT22;14206;50.202;10.948;2023-05-02T11:25:42;23.30;57.60
26541;DHT22;14206;50.202;10.948;2023-05-02T11:31:04;22.10;61.20
26541;DHT22;14206;50.202;10.948;2023-05-02T11:33:32;22.40;59.90
26541;DHT22;14206;50.202;10.948;2023-05-02T11:35:59;22.60;59.40
26541;DHT22;14206;50.202;10.948;2023-05-02T11:38:35;22.90;58.40
26541;DHT22;14206;50.202;10.948;2023-05-02T11:41:02;23.00;58.80
26541;DHT22;14206;50.202;10.948;2023-05-02T11:43:30;22.80;59.50
26541;DHT22;14206;50.202;10.948;2023-05-02T11:45:59;22.40;59.60
26541;DHT22;14206;50.202;10.948;2023-05-02T11:48:26;22.10;59.40
26541;DHT22;14206;50.202;10.948;2023-05-02T11:50:58;21.70;60.00
26541;DHT22;14206;50.202;10.948;2023-05-02T11:53:28;21.40;61.10
26541;DHT22;14206;50.202;10.948;2023-05-02T11:56:00;21.10;61.20
26541;DHT22;14206;50.202;10.948;2023-05-02T11:58:28;20.80;61.00
26541;DHT22;14206;50.202;10.948;2023-05-02T12:00:59;20.40;63.00
26541;DHT22;14206;50.202;10.948;2023-05-02T12:03:36;20.00;64.00
26541;DHT22;14206;50.202;10.948;2023-05-02T12:06:11;19.50;66.30
26541;DHT22;14206;50.202;10.948;2023-05-02T12:08:41;19.30;67.60
26541;DHT22;14206;50.202;10.948;2023-05-02T12:11:08;19.10;68.80
26541;DHT22;14206;50.202;10.948;2023-05-02T12:13:44;19.00;69.90
26541;DHT22;14206;50.202;10.948;2023-05-02T12:16:11;19.00;70.10
26541;DHT22;14206;50.202;10.948;2023-05-02T12:18:38;19.10;70.00
26541;DHT22;14206;50.202;10.948;2023-05-02T12:21:06;19.20;70.60
26541;DHT22;14206;50.202;10.948;2023-05-02T12:23:33;20.10;68.20
26541;DHT22;14206;50.202;10.948;2023-05-02T12:26:16;21.50;66.50
26541;DHT22;14206;50.202;10.948;2023-05-02T12:28:52;22.90;63.10
26541;DHT22;14206;50.202;10.948;2023-05-02T12:31:24;24.00;59.80
26541;DHT22;14206;50.202;10.948;2023-05-02T12:33:53;24.80;57.80
26541;DHT22;14206;50.202;10.948;2023-05-02T12:36:23;25.40;57.50
26541;DHT22;14206;50.202;10.948;2023-05-02T12:38:51;25.80;56.80
26541;DHT22;14206;50.202;10.948;2023-05-02T12:41:34;26.00;54.80
26541;DHT22;14206;50.202;10.948;2023-05-02T12:44:01;25.80;55.00
26541;DHT22;14206;50.202;10.948;2023-05-02T12:46:29;24.90;55.60
26541;DHT22;14206;50.202;10.948;2023-05-02T12:49:04;23.90;56.50
26541;DHT22;14206;50.202;10.948;2023-05-02T12:51:34;23.20;59.40
26541;DHT22;14206;50.202;10.948;2023-05-02T12:54:02;22.90;60.00
26541;DHT22;14206;50.202;10.948;2023-05-02T12:56:29;22.60;60.20
26541;DHT22;14206;50.202;10.948;2023-05-02T12:59:03;22.20;60.80
26541;DHT22;14206;50.202;10.948;2023-05-02T13:01:34;21.70;60.80
26541;DHT22;14206;50.202;10.948;2023-05-02T13:04:01;21.30;61.90
26541;DHT22;14206;50.202;10.948;2023-05-02T13:06:29;21.20;62.60
26541;DHT22;14206;50.202;10.948;2023-05-02T13:08:57;21.10;62.90
26541;DHT22;14206;50.202;10.948;2023-05-02T13:11:24;20.90;63.00
26541;DHT22;14206;50.202;10.948;2023-05-02T13:13:50;20.70;64.40
26541;DHT22;14206;50.202;10.948;2023-05-02T13:16:17;20.50;64.50
26541;DHT22;14206;50.202;10.948;2023-05-02T13:18:44;20.40;65.50
26541;DHT22;14206;50.202;10.948;2023-05-02T13:21:14;20.30;65.20
26541;DHT22;14206;50.202;10.948;2023-05-02T13:23:41;20.20;66.30
26541;DHT22;14206;50.202;10.948;2023-05-02T13:26:10;20.30;66.90
26541;DHT22;14206;50.202;10.948;2023-05-02T13:28:36;20.20;66.40
26541;DHT22;14206;50.202;10.948;2023-05-02T13:31:03;19.90;67.60
26541;DHT22;14206;50.202;10.948;2023-05-02T13:33:30;19.60;72.40
26541;DHT22;14206;50.202;10.948;2023-05-02T13:35:57;19.20;74.00
26541;DHT22;14206;50.202;10.948;2023-05-02T13:38:24;18.80;75.70
26541;DHT22;14206;50.202;10.948;2023-05-02T13:40:51;18.40;77.40
26541;DHT22;14206;50.202;10.948;2023-05-02T13:43:19;18.10;79.90
26541;DHT22;14206;50.202;10.948;2023-05-02T13:45:46;17.90;79.60
26541;DHT22;14206;50.202;10.948;2023-05-02T13:48:14;17.90;79.90
26541;DHT22;14206;50.202;10.948;2023-05-02T13:50:41;18.10;82.00
26541;DHT22;14206;50.202;10.948;2023-05-02T13:53:08;18.40;79.90
26541;DHT22;14206;50.202;10.948;2023-05-02T13:55:35;18.50;78.30
26541;DHT22;14206;50.202;10.948;2023-05-02T13:58:02;18.60;73.80
26541;DHT22;14206;50.202;10.948;2023-05-02T14:00:29;18.50;73.00
26541;DHT22;14206;50.202;10.948;2023-05-02T14:02:56;18.50;73.90
26541;DHT22;14206;50.202;10.948;2023-05-02T14:05:23;18.40;74.30
26541;DHT22;14206;50.202;10.948;2023-05-02T14:07:50;18.50;74.50
26541;DHT22;14206;50.202;10.948;2023-05-02T14:10:16;18.70;76.50
26541;DHT22;14206;50.202;10.948;2023-05-02T14:12:43;18.80;76.10
26541;DHT22;14206;50.202;10.948;2023-05-02T14:15:10;18.80;74.60
26541;DHT22;14206;50.202;10.948;2023-05-02T14:17:37;18.90;74.70
26541;DHT22;14206;50.202;10.948;2023-05-02T14:20:05;19.00;76.00
26541;DHT22;14206;50.202;10.948;2023-05-02T14:22:33;19.10;74.90
26541;DHT22;14206;50.202;10.948;2023-05-02T14:24:59;19.10;74.60
26541;DHT22;14206;50.202;10.948;2023-05-02T14:27:26;19.10;74.20
26541;DHT22;14206;50.202;10.948;2023-05-02T14:29:53;19.20;76.80
26541;DHT22;14206;50.202;10.948;2023-05-02T14:32:20;19.30;75.50
26541;DHT22;14206;50.202;10.948;2023-05-02T14:34:47;19.20;74.10
26541;DHT22;14206;50.202;10.948;2023-05-02T14:37:14;19.20;74.20
26541;DHT22;14206;50.202;10.948;2023-05-02T14:39:40;19.30;75.50
26541;DHT22;14206;50.202;10.948;2023-05-02T14:42:08;19.30;71.90
26541;DHT22;14206;50.202;10.948;2023-05-02T14:44:35;19.40;73.60
26541;DHT22;14206;50.202;10.948;2023-05-02T14:47:02;19.50;73.10
26541;DHT22;14206;50.202;10.948;2023-05-02T14:49:29;19.40;71.60
26541;DHT22;14206;50.202;10.948;2023-05-02T14:51:56;19.30;71.80
26541;DHT22;14206;50.202;10.948;2023-05-02T14:54:27;18.90;71.50
26541;DHT22;14206;50.202;10.948;2023-05-02T14:56:56;18.30;72.70
26541;DHT22;14206;50.202;10.948;2023-05-02T14:59:24;17.80;74.20
26541;DHT22;14206;50.202;10.948;2023-05-02T15:01:53;17.40;78.00
26541;DHT22;14206;50.202;10.948;2023-05-02T15:04:20;16.90;80.40
26541;DHT22;14206;50.202;10.948;2023-05-02T15:06:47;16.40;82.10
26541;DHT22;14206;50.202;10.948;2023-05-02T15:09:14;15.80;82.30
26541;DHT22;14206;50.202;10.948;2023-05-02T15:11:42;15.40;85.60
26541;DHT22;14206;50.202;10.948;2023-05-02T15:14:09;15.20;87.00
26541;DHT22;14206;50.202;10.948;2023-05-02T15:16:36;15.00;87.00
26541;DHT22;14206;50.202;10.948;2023-05-02T15:19:04;15.00;89.70
26541;DHT22;14206;50.202;10.948;2023-05-02T15:21:31;15.10;89.70
26541;DHT22;14206;50.202;10.948;2023-05-02T15:23:58;15.20;88.40
26541;DHT22;14206;50.202;10.948;2023-05-02T15:26:29;15.30;89.00
26541;DHT22;14206;50.202;10.948;2023-05-02T15:28:55;15.40;89.40
26541;DHT22;14206;50.202;10.948;2023-05-02T15:31:23;15.60;89.10
26541;DHT22;14206;50.202;10.948;2023-05-02T15:33:50;15.70;87.00
26541;DHT22;14206;50.202;10.948;2023-05-02T15:36:17;15.80;88.30
26541;DHT22;14206;50.202;10.948;2023-05-02T15:38:44;15.90;88.10
26541;DHT22;14206;50.202;10.948;2023-05-02T15:41:10;15.90;86.00
26541;DHT22;14206;50.202;10.948;2023-05-02T15:43:37;16.00;86.50
26541;DHT22;14206;50.202;10.948;2023-05-02T15:46:04;16.00;86.40
26541;DHT22;14206;50.202;10.948;2023-05-02T15:48:31;16.00;85.60
26541;DHT22;14206;50.202;10.948;2023-05-02T15:50:59;16.00;86.70
26541;DHT22;14206;50.202;10.948;2023-05-02T15:53:26;16.00;85.60
26541;DHT22;14206;50.202;10.948;2023-05-02T15:55:53;15.90;87.10
26541;DHT22;14206;50.202;10.948;2023-05-02T15:58:20;15.90;87.40
26541;DHT22;14206;50.202;10.948;2023-05-02T16:00:47;15.90;87.00
26541;DHT22;14206;50.202;10.948;2023-05-02T16:03:14;15.90;86.30
26541;DHT22;14206;50.202;10.948;2023-05-02T16:05:41;15.80;87.10
26541;DHT22;14206;50.202;10.948;2023-05-02T16:08:08;15.80;86.90
26541;DHT22;14206;50.202;10.948;2023-05-02T16:10:35;15.80;87.00
26541;DHT22;14206;50.202;10.948;2023-05-02T16:13:02;15.80;84.40
26541;DHT22;14206;50.202;10.948;2023-05-02T16:15:29;15.70;85.20
26541;DHT22;14206;50.202;10.948;2023-05-02T16:17:56;15.80;84.20
26541;DHT22;14206;50.202;10.948;2023-05-02T16:20:23;15.70;83.50
26541;DHT22;14206;50.202;10.948;2023-05-02T16:22:50;15.70;84.80